createdAt,value
2023-10-28T00:00:48.668Z,15.98
2023-10-28T00:01:50.272Z,14.32
2023-10-28T00:02:51.983Z,14.63
2023-10-28T00:03:53.692Z,14.13
2023-10-28T00:04:55.329Z,12.90
2023-10-28T00:05:56.908Z,10.30
2023-10-28T00:06:58.505Z,14.98
2023-10-28T00:08:00.365Z,15.55
2023-10-28T00:09:02.009Z,10.45
2023-10-28T00:10:04.258Z,15.50
2023-10-28T00:11:07.658Z,13.40
2023-10-28T00:12:14.017Z,13.38
2023-10-28T00:13:15.622Z,16.55
2023-10-28T00:14:18.782Z,13.32
2023-10-28T00:15:20.358Z,15.30
2023-10-28T00:16:22.007Z,18.60
2023-10-28T00:17:25.280Z,14.75
2023-10-28T00:18:26.967Z,16.80
2023-10-28T00:19:30.340Z,14.60
2023-10-28T00:20:32.292Z,12.68
2023-10-28T00:21:33.968Z,15.38
2023-10-28T00:22:35.644Z,14.60
2023-10-28T00:23:37.439Z,26.23
2023-10-28T00:24:39.008Z,17.02
2023-10-28T00:25:40.910Z,15.90
2023-10-28T00:26:42.520Z,17.60
2023-10-28T00:27:44.553Z,15.38
2023-10-28T00:28:46.454Z,13.07
2023-10-28T00:29:53.314Z,14.65
2023-10-28T00:30:55.107Z,15.32
2023-10-28T00:31:56.734Z,17.70
2023-10-28T00:33:01.166Z,14.68
2023-10-28T00:34:02.860Z,15.25
2023-10-28T00:35:08.658Z,13.23
2023-10-28T00:36:12.331Z,12.38
2023-10-28T00:37:14.139Z,13.70
2023-10-28T00:38:15.735Z,12.75
2023-10-28T00:39:17.798Z,18.50
2023-10-28T00:40:19.769Z,12.65
2023-10-28T00:41:21.651Z,14.82
2023-10-28T00:42:23.366Z,15.40
2023-10-28T00:43:25.386Z,13.32
2023-10-28T00:44:26.955Z,15.52
2023-10-28T00:45:28.909Z,16.80
2023-10-28T00:46:30.758Z,19.35
2023-10-28T00:47:34.854Z,17.98
2023-10-28T00:48:36.567Z,14.90
2023-10-28T00:49:38.183Z,13.50
2023-10-28T00:50:40.081Z,14.52
2023-10-28T00:51:42.351Z,15.75
2023-10-28T00:52:51.993Z,14.95
2023-10-28T00:53:53.865Z,17.88
2023-10-28T00:54:57.764Z,13.57
2023-10-28T00:56:00.705Z,18.10
2023-10-28T00:57:03.122Z,15.65
2023-10-28T00:58:04.948Z,17.50
2023-10-28T00:59:07.813Z,15.43
2023-10-28T01:00:11.807Z,16.52
2023-10-28T01:01:15.218Z,15.88
2023-10-28T01:02:18.953Z,17.73
2023-10-28T01:03:20.725Z,16.58
2023-10-28T01:04:22.469Z,14.23
2023-10-28T01:05:24.147Z,21.60
2023-10-28T01:06:25.766Z,16.35
2023-10-28T01:07:28.214Z,15.80
2023-10-28T01:08:29.778Z,16.60
2023-10-28T01:09:31.441Z,14.18
2023-10-28T01:10:34.752Z,14.07
2023-10-28T01:11:42.570Z,13.63
2023-10-28T01:12:44.171Z,19.13
2023-10-28T01:13:45.846Z,15.57
2023-10-28T01:14:47.482Z,20.08
2023-10-28T01:15:49.114Z,16.60
2023-10-28T01:16:50.766Z,16.42
2023-10-28T01:17:52.434Z,12.85
2023-10-28T01:18:56.576Z,10.75
2023-10-28T01:19:59.168Z,13.40
2023-10-28T01:21:09.662Z,15.10
2023-10-28T01:22:11.247Z,18.45
2023-10-28T01:23:13.002Z,13.57
2023-10-28T01:24:14.573Z,18.67
2023-10-28T01:25:16.219Z,10.60
2023-10-28T01:26:18.059Z,11.68
2023-10-28T01:27:20.408Z,11.10
2023-10-28T01:28:22.146Z,12.68
2023-10-28T01:29:25.963Z,13.70
2023-10-28T01:30:28.167Z,11.25
2023-10-28T01:31:29.956Z,13.18
2023-10-28T01:32:31.815Z,14.57
2023-10-28T01:33:33.453Z,13.38
2023-10-28T01:34:48.452Z,15.20
2023-10-28T01:35:50.162Z,13.55
2023-10-28T01:36:51.983Z,12.98
2023-10-28T01:37:53.677Z,11.25
2023-10-28T01:38:55.353Z,11.02
2023-10-28T01:39:57.890Z,13.15
2023-10-28T01:40:59.510Z,16.58
2023-10-28T01:42:01.126Z,14.43
2023-10-28T01:43:03.115Z,11.07
2023-10-28T01:44:05.139Z,14.80
2023-10-28T01:45:08.452Z,10.05
2023-10-28T01:46:10.007Z,10.07
2023-10-28T01:47:11.684Z,9.63
2023-10-28T01:48:14.897Z,9.77
2023-10-28T01:49:16.538Z,5.22
2023-10-28T01:50:21.646Z,8.57
2023-10-28T01:51:23.441Z,7.57
2023-10-28T01:52:25.484Z,9.70
2023-10-28T01:53:31.646Z,10.50
2023-10-28T01:54:34.429Z,8.75
2023-10-28T01:55:36.073Z,7.15
2023-10-28T01:56:38.054Z,10.23
2023-10-28T01:57:40.429Z,10.15
2023-10-28T01:58:42.005Z,6.07
2023-10-28T01:59:45.041Z,9.38
2023-10-28T02:00:46.933Z,10.70
2023-10-28T02:01:48.495Z,13.70
2023-10-28T02:02:51.857Z,14.88
2023-10-28T02:03:54.431Z,17.52
2023-10-28T02:04:56.161Z,14.63
2023-10-28T02:05:57.726Z,19.10
2023-10-28T02:07:00.023Z,13.98
2023-10-28T02:08:01.642Z,14.52
2023-10-28T02:09:04.190Z,14.00
2023-10-28T02:10:06.487Z,20.50
2023-10-28T02:11:08.637Z,15.18
2023-10-28T02:12:10.269Z,15.75
2023-10-28T02:13:14.002Z,14.68
2023-10-28T02:14:15.950Z,13.32
2023-10-28T02:15:17.897Z,12.50
2023-10-28T02:16:19.950Z,18.85
2023-10-28T02:17:21.519Z,17.20
2023-10-28T02:18:24.098Z,16.63
2023-10-28T02:19:25.956Z,16.83
2023-10-28T02:20:29.508Z,12.30
2023-10-28T02:21:31.113Z,17.15
2023-10-28T02:22:33.105Z,16.92
2023-10-28T02:23:34.732Z,14.88
2023-10-28T02:24:36.341Z,13.43
2023-10-28T02:25:37.902Z,18.02
2023-10-28T02:26:39.564Z,15.15
2023-10-28T02:27:41.174Z,14.52
2023-10-28T02:28:42.771Z,13.32
2023-10-28T02:29:44.537Z,15.07
2023-10-28T02:30:46.297Z,12.70
2023-10-28T02:31:48.195Z,10.48
2023-10-28T02:32:49.875Z,15.70
2023-10-28T02:33:51.599Z,13.45
2023-10-28T02:34:53.322Z,20.27
2023-10-28T02:35:54.879Z,15.35
2023-10-28T02:36:56.519Z,12.38
2023-10-28T02:37:58.194Z,16.95
2023-10-28T02:39:01.261Z,12.13
2023-10-28T02:40:03.741Z,13.68
2023-10-28T02:41:08.801Z,11.80
2023-10-28T02:42:10.521Z,11.95
2023-10-28T02:43:12.118Z,11.77
2023-10-28T02:44:13.755Z,12.60
2023-10-28T02:45:15.674Z,11.02
2023-10-28T02:46:24.592Z,10.30
2023-10-28T02:47:26.810Z,10.93
2023-10-28T02:48:29.375Z,7.80
2023-10-28T02:49:31.536Z,16.67
2023-10-28T02:50:36.459Z,17.65
2023-10-28T02:51:38.401Z,10.88
2023-10-28T02:52:39.970Z,14.60
2023-10-28T02:53:41.606Z,12.60
2023-10-28T02:54:43.186Z,10.07
2023-10-28T02:55:44.828Z,12.38
2023-10-28T02:56:46.367Z,10.52
2023-10-28T02:57:47.993Z,13.60
2023-10-28T02:58:50.225Z,9.70
2023-10-28T02:59:51.785Z,9.25
2023-10-28T03:00:56.336Z,13.57
2023-10-28T03:01:58.747Z,12.55
2023-10-28T03:03:00.533Z,12.18
2023-10-28T03:04:02.150Z,11.27
2023-10-28T03:05:06.233Z,9.90
2023-10-28T03:06:08.199Z,10.52
2023-10-28T03:07:09.843Z,12.10
2023-10-28T03:08:11.532Z,13.07
2023-10-28T03:09:13.559Z,11.13
2023-10-28T03:10:15.262Z,10.43
2023-10-28T03:11:16.869Z,12.75
2023-10-28T03:12:18.899Z,14.00
2023-10-28T03:13:20.472Z,9.60
2023-10-28T03:14:22.080Z,13.18
2023-10-28T03:15:25.864Z,9.77
2023-10-28T03:16:27.703Z,9.95
2023-10-28T03:17:29.462Z,10.68
2023-10-28T03:18:31.172Z,9.00
2023-10-28T03:19:32.775Z,12.88
2023-10-28T03:20:34.466Z,9.52
2023-10-28T03:21:36.080Z,8.88
2023-10-28T03:22:37.958Z,9.40
2023-10-28T03:23:39.586Z,10.60
2023-10-28T03:24:41.162Z,13.57
2023-10-28T03:25:42.841Z,12.70
2023-10-28T03:26:44.408Z,7.60
2023-10-28T03:27:47.182Z,8.13
2023-10-28T03:28:50.684Z,8.20
2023-10-28T03:29:53.419Z,11.65
2023-10-28T03:30:55.045Z,13.85
2023-10-28T03:31:56.615Z,11.45
2023-10-28T03:32:58.672Z,10.25
2023-10-28T03:34:00.765Z,7.25
2023-10-28T03:35:02.560Z,7.78
2023-10-28T03:36:06.043Z,11.57
2023-10-28T03:37:07.735Z,8.85
2023-10-28T03:38:10.571Z,8.40
2023-10-28T03:39:12.699Z,8.13
2023-10-28T03:40:14.716Z,17.42
2023-10-28T03:41:16.467Z,11.00
2023-10-28T03:42:18.095Z,12.20
2023-10-28T03:43:19.732Z,10.43
2023-10-28T03:44:21.669Z,8.63
2023-10-28T03:45:23.384Z,10.98
2023-10-28T03:46:26.438Z,11.23
2023-10-28T03:47:30.467Z,10.27
2023-10-28T03:48:32.499Z,10.90
2023-10-28T03:49:34.454Z,11.48
2023-10-28T03:50:36.633Z,9.75
2023-10-28T03:51:39.784Z,9.63
2023-10-28T03:52:41.489Z,6.50
2023-10-28T03:53:43.197Z,9.00
2023-10-28T03:54:44.782Z,9.15
2023-10-28T03:55:46.376Z,7.28
2023-10-28T03:56:48.836Z,5.47
2023-10-28T03:57:50.420Z,9.73
2023-10-28T03:58:52.543Z,7.40
2023-10-28T03:59:54.306Z,7.55
2023-10-28T04:00:56.038Z,8.50
2023-10-28T04:01:57.807Z,7.82
2023-10-28T04:02:59.409Z,9.13
2023-10-28T04:04:00.958Z,7.80
2023-10-28T04:05:02.619Z,8.48
2023-10-28T04:06:07.454Z,10.95
2023-10-28T04:07:09.420Z,13.23
2023-10-28T04:08:11.083Z,16.02
2023-10-28T04:09:15.252Z,11.68
2023-10-28T04:10:16.863Z,12.60
2023-10-28T04:11:18.489Z,11.40
2023-10-28T04:12:20.084Z,10.82
2023-10-28T04:13:21.848Z,14.13
2023-10-28T04:14:24.252Z,14.02
2023-10-28T04:15:26.452Z,16.10
2023-10-28T04:16:28.152Z,14.40
2023-10-28T04:17:32.887Z,19.98
2023-10-28T04:18:34.669Z,14.43
2023-10-28T04:19:36.263Z,19.95
2023-10-28T04:20:39.071Z,12.65
2023-10-28T04:21:40.818Z,12.98
2023-10-28T04:22:42.404Z,12.98
2023-10-28T04:23:44.489Z,18.15
2023-10-28T04:24:46.223Z,17.52
2023-10-28T04:25:47.873Z,19.17
2023-10-28T04:26:49.536Z,15.18
2023-10-28T04:27:51.907Z,16.27
2023-10-28T04:28:53.575Z,14.30
2023-10-28T04:29:55.587Z,19.42
2023-10-28T04:30:58.159Z,17.45
2023-10-28T04:31:59.813Z,17.92
2023-10-28T04:33:01.608Z,21.77
2023-10-28T04:34:04.526Z,19.35
2023-10-28T04:35:15.652Z,17.35
2023-10-28T04:36:28.317Z,22.80
2023-10-28T04:37:29.955Z,17.52
2023-10-28T04:38:31.572Z,25.05
2023-10-28T04:39:33.163Z,17.95
2023-10-28T04:40:37.174Z,22.63
2023-10-28T04:41:38.750Z,23.67
2023-10-28T04:42:40.366Z,22.52
2023-10-28T04:43:41.972Z,19.55
2023-10-28T04:44:44.738Z,26.13
2023-10-28T04:45:46.719Z,24.33
2023-10-28T04:46:48.336Z,28.00
2023-10-28T04:47:50.411Z,29.25
2023-10-28T04:48:52.005Z,24.35
2023-10-28T04:49:53.654Z,24.38
2023-10-28T04:50:55.688Z,22.67
2023-10-28T04:51:57.471Z,24.42
2023-10-28T04:52:59.076Z,24.80
2023-10-28T04:54:00.667Z,25.23
2023-10-28T04:55:02.282Z,22.77
2023-10-28T04:56:04.125Z,20.67
2023-10-28T04:57:05.793Z,28.73
2023-10-28T04:58:07.530Z,32.80
2023-10-28T04:59:11.271Z,26.30
2023-10-28T05:00:14.746Z,23.08
2023-10-28T05:01:16.432Z,23.92
2023-10-28T05:02:18.051Z,23.38
2023-10-28T05:03:21.276Z,28.60
2023-10-28T05:04:26.579Z,23.83
2023-10-28T05:05:28.186Z,33.92
2023-10-28T05:06:30.104Z,31.25
2023-10-28T05:07:31.744Z,23.67
2023-10-28T05:08:33.521Z,27.10
2023-10-28T05:09:37.278Z,24.73
2023-10-28T05:10:38.885Z,26.13
2023-10-28T05:11:40.459Z,30.55
2023-10-28T05:12:42.170Z,30.23
2023-10-28T05:13:44.069Z,28.08
2023-10-28T05:14:48.496Z,25.25
2023-10-28T05:15:50.115Z,28.75
2023-10-28T05:16:53.944Z,25.15
2023-10-28T05:17:55.651Z,27.00
2023-10-28T05:18:57.591Z,25.60
2023-10-28T05:19:59.254Z,29.00
2023-10-28T05:21:00.919Z,31.45
2023-10-28T05:22:04.905Z,31.65
2023-10-28T05:23:06.495Z,23.55
2023-10-28T05:24:08.574Z,25.58
2023-10-28T05:25:10.655Z,25.85
2023-10-28T05:26:12.314Z,26.10
2023-10-28T05:27:14.038Z,25.92
2023-10-28T05:28:15.803Z,29.55
2023-10-28T05:29:17.718Z,25.33
2023-10-28T05:30:19.504Z,26.20
2023-10-28T05:31:22.390Z,22.58
2023-10-28T05:32:24.178Z,26.42
2023-10-28T05:33:25.982Z,26.83
2023-10-28T05:34:27.557Z,31.05
2023-10-28T05:35:29.168Z,23.73
2023-10-28T05:36:30.788Z,24.65
2023-10-28T05:37:32.400Z,26.98
2023-10-28T05:38:34.038Z,20.95
2023-10-28T05:39:35.656Z,25.27
2023-10-28T05:40:37.294Z,19.80
2023-10-28T05:41:38.926Z,23.33
2023-10-28T05:42:41.793Z,23.25
2023-10-28T05:43:43.428Z,25.38
2023-10-28T05:44:45.130Z,25.48
2023-10-28T05:45:46.802Z,21.52
2023-10-28T05:46:48.561Z,25.10
2023-10-28T05:47:50.236Z,25.48
2023-10-28T05:48:52.140Z,21.48
2023-10-28T05:49:54.219Z,26.65
2023-10-28T05:50:59.166Z,28.40
2023-10-28T05:52:01.216Z,26.10
2023-10-28T05:53:02.854Z,21.40
2023-10-28T05:54:05.369Z,21.33
2023-10-28T05:55:08.469Z,20.55
2023-10-28T05:56:10.123Z,26.75
2023-10-28T05:57:11.715Z,22.92
2023-10-28T05:58:13.342Z,30.38
2023-10-28T05:59:16.056Z,25.10
2023-10-28T06:00:18.039Z,26.50
2023-10-28T06:01:19.655Z,25.75
2023-10-28T06:02:21.451Z,20.02
2023-10-28T06:03:23.226Z,17.52
2023-10-28T06:04:24.906Z,26.90
2023-10-28T06:05:26.806Z,20.60
2023-10-28T06:06:32.132Z,22.42
2023-10-28T06:07:34.298Z,18.45
2023-10-28T06:08:35.921Z,25.33
2023-10-28T06:09:37.555Z,22.17
2023-10-28T06:10:39.167Z,23.15
2023-10-28T06:11:41.289Z,21.75
2023-10-28T06:12:43.089Z,21.13
2023-10-28T06:13:44.699Z,27.05
2023-10-28T06:14:46.420Z,18.88
2023-10-28T06:15:48.117Z,23.33
2023-10-28T06:16:50.700Z,21.70
2023-10-28T06:17:52.402Z,22.02
2023-10-28T06:18:56.673Z,18.75
2023-10-28T06:19:58.290Z,21.20
2023-10-28T06:20:59.849Z,28.48
2023-10-28T06:22:01.990Z,20.55
2023-10-28T06:23:07.522Z,20.17
2023-10-28T06:24:09.470Z,25.85
2023-10-28T06:25:11.124Z,19.05
2023-10-28T06:26:12.726Z,17.13
2023-10-28T06:27:14.274Z,23.42
2023-10-28T06:28:15.895Z,18.55
2023-10-28T06:29:17.529Z,23.15
2023-10-28T06:30:19.238Z,29.85
2023-10-28T06:31:21.736Z,21.27
2023-10-28T06:32:23.427Z,24.95
2023-10-28T06:33:25.532Z,20.15
2023-10-28T06:34:30.190Z,19.27
2023-10-28T06:35:31.839Z,23.00
2023-10-28T06:36:34.631Z,21.88
2023-10-28T06:37:40.878Z,23.40
2023-10-28T06:38:42.545Z,17.08
2023-10-28T06:39:48.876Z,22.02
2023-10-28T06:40:51.756Z,22.67
2023-10-28T06:41:53.386Z,21.20
2023-10-28T06:42:54.989Z,19.58
2023-10-28T06:43:59.029Z,26.30
2023-10-28T06:45:00.649Z,26.08
2023-10-28T06:46:02.267Z,22.38
2023-10-28T06:47:04.616Z,20.00
2023-10-28T06:48:06.342Z,32.15
2023-10-28T06:49:09.583Z,25.08
2023-10-28T06:50:11.227Z,20.02
2023-10-28T06:51:14.030Z,22.70
2023-10-28T06:52:15.594Z,21.42
2023-10-28T06:53:17.265Z,22.42
2023-10-28T06:54:19.906Z,17.35
2023-10-28T06:55:21.670Z,22.20
2023-10-28T06:56:23.344Z,29.55
2023-10-28T06:57:24.952Z,19.05
2023-10-28T06:58:26.776Z,18.05
2023-10-28T06:59:28.339Z,21.13
2023-10-28T07:00:30.066Z,22.05
2023-10-28T07:01:31.788Z,17.42
2023-10-28T07:02:33.818Z,15.70
2023-10-28T07:03:35.642Z,22.25
2023-10-28T07:04:37.302Z,18.63
2023-10-28T07:05:39.942Z,19.33
2023-10-28T07:06:42.573Z,20.25
2023-10-28T07:07:46.117Z,20.70
2023-10-28T07:08:47.820Z,20.80
2023-10-28T07:09:49.888Z,19.75
2023-10-28T07:10:51.674Z,22.88
2023-10-28T07:11:54.316Z,17.90
2023-10-28T07:12:56.006Z,22.35
2023-10-28T07:13:57.623Z,17.65
2023-10-28T07:15:01.040Z,16.45
2023-10-28T07:16:06.341Z,14.30
2023-10-28T07:17:08.004Z,18.50
2023-10-28T07:18:09.981Z,23.00
2023-10-28T07:19:13.419Z,20.63
2023-10-28T07:20:16.858Z,15.20
2023-10-28T07:21:18.603Z,16.92
2023-10-28T07:22:24.196Z,18.55
2023-10-28T07:23:29.095Z,18.08
2023-10-28T07:24:30.692Z,22.90
2023-10-28T07:25:32.248Z,16.58
2023-10-28T07:26:34.161Z,33.22
2023-10-28T07:27:35.766Z,18.50
2023-10-28T07:28:38.819Z,37.38
2023-10-28T07:29:40.465Z,18.40
2023-10-28T07:30:46.366Z,24.15
2023-10-28T07:31:49.086Z,16.60
2023-10-28T07:32:51.938Z,22.70
2023-10-28T07:33:53.625Z,22.70
2023-10-28T07:34:55.233Z,23.15
2023-10-28T07:35:56.903Z,22.25
2023-10-28T07:37:04.732Z,15.60
2023-10-28T07:38:06.314Z,27.45
2023-10-28T07:39:07.970Z,21.27
2023-10-28T07:40:12.466Z,14.88
2023-10-28T07:41:14.139Z,19.27
2023-10-28T07:42:17.008Z,12.02
2023-10-28T07:43:19.039Z,13.38
2023-10-28T07:44:20.741Z,16.20
2023-10-28T07:45:22.322Z,17.23
2023-10-28T07:46:27.477Z,14.57
2023-10-28T07:47:29.133Z,17.30
2023-10-28T07:48:31.528Z,15.15
2023-10-28T07:49:33.873Z,22.42
2023-10-28T07:50:36.182Z,14.23
2023-10-28T07:51:37.834Z,20.25
2023-10-28T07:52:39.428Z,15.63
2023-10-28T07:53:41.055Z,12.98
2023-10-28T07:54:42.707Z,18.27
2023-10-28T07:55:44.259Z,12.73
2023-10-28T07:56:45.896Z,19.33
2023-10-28T07:57:47.497Z,20.13
2023-10-28T07:58:51.992Z,18.92
2023-10-28T07:59:54.389Z,17.63
2023-10-28T08:00:56.002Z,15.25
2023-10-28T08:01:59.438Z,11.38
2023-10-28T08:03:02.018Z,16.70
2023-10-28T08:04:07.801Z,12.38
2023-10-28T08:05:11.275Z,13.50
2023-10-28T08:06:20.353Z,13.30
2023-10-28T08:07:26.061Z,13.63
2023-10-28T08:08:31.241Z,19.25
2023-10-28T08:09:32.889Z,12.15
2023-10-28T08:10:34.512Z,15.20
2023-10-28T08:11:36.636Z,17.60
2023-10-28T08:12:39.760Z,16.23
2023-10-28T08:13:41.688Z,15.27
2023-10-28T08:14:48.080Z,14.57
2023-10-28T08:15:53.893Z,15.75
2023-10-28T08:16:57.636Z,12.32
2023-10-28T08:17:59.736Z,14.95
2023-10-28T08:19:02.344Z,15.32
2023-10-28T08:20:07.201Z,10.95
2023-10-28T08:21:09.003Z,11.73
2023-10-28T08:22:13.384Z,12.35
2023-10-28T08:23:15.023Z,10.82
2023-10-28T08:24:17.776Z,12.77
2023-10-28T08:25:19.522Z,11.13
2023-10-28T08:26:21.138Z,14.15
2023-10-28T08:27:22.853Z,10.35
2023-10-28T08:28:24.487Z,16.33
2023-10-28T08:29:26.259Z,19.38
2023-10-28T08:30:29.414Z,34.35
2023-10-28T08:31:31.036Z,41.08
2023-10-28T08:32:33.522Z,52.85
2023-10-28T08:33:38.848Z,39.65
2023-10-28T08:34:40.415Z,16.92
2023-10-28T08:35:42.055Z,12.30
2023-10-28T08:36:43.818Z,19.33
2023-10-28T08:37:45.366Z,18.30
2023-10-28T08:38:49.082Z,10.63
2023-10-28T08:39:51.045Z,24.67
2023-10-28T08:40:52.644Z,10.18
2023-10-28T08:41:55.430Z,14.43
2023-10-28T08:42:59.664Z,13.32
2023-10-28T08:44:05.675Z,12.23
2023-10-28T08:45:10.222Z,14.98
2023-10-28T08:46:13.715Z,20.30
2023-10-28T08:47:18.450Z,11.20
2023-10-28T08:48:22.162Z,12.88
2023-10-28T08:49:24.473Z,15.32
2023-10-28T08:50:26.660Z,14.35
2023-10-28T08:51:28.369Z,11.05
2023-10-28T08:52:33.766Z,13.40
2023-10-28T08:53:37.690Z,18.10
2023-10-28T08:54:41.009Z,24.85
2023-10-28T08:55:45.741Z,11.23
2023-10-28T08:56:48.374Z,11.90
2023-10-28T08:57:50.113Z,9.50
2023-10-28T08:58:53.595Z,11.02
2023-10-28T08:59:55.389Z,11.57
2023-10-28T09:01:00.794Z,14.63
2023-10-28T09:02:09.153Z,12.95
2023-10-28T09:03:12.824Z,15.57
2023-10-28T09:04:16.337Z,22.00
2023-10-28T09:05:18.173Z,15.75
2023-10-28T09:06:20.900Z,17.23
2023-10-28T09:07:22.490Z,18.45
2023-10-28T09:08:24.935Z,20.83
2023-10-28T09:09:29.054Z,17.38
2023-10-28T09:10:31.280Z,16.52
2023-10-28T09:11:33.437Z,17.23
2023-10-28T09:12:35.628Z,24.83
2023-10-28T09:13:38.147Z,16.10
2023-10-28T09:14:40.133Z,30.80
2023-10-28T09:15:41.896Z,14.00
2023-10-28T09:16:43.555Z,13.48
2023-10-28T09:17:45.285Z,11.90
2023-10-28T09:18:46.883Z,15.77
2023-10-28T09:19:48.615Z,22.73
2023-10-28T09:20:50.397Z,19.63
2023-10-28T09:21:53.180Z,12.52
2023-10-28T09:22:54.801Z,15.40
2023-10-28T09:24:01.606Z,12.88
2023-10-28T09:25:04.474Z,13.45
2023-10-28T09:26:06.864Z,15.77
2023-10-28T09:27:11.434Z,13.77
2023-10-28T09:28:17.201Z,18.88
2023-10-28T09:29:26.710Z,14.05
2023-10-28T09:30:29.716Z,13.32
2023-10-28T09:31:31.699Z,15.43
2023-10-28T09:32:37.054Z,20.13
2023-10-28T09:33:39.418Z,19.92
2023-10-28T09:34:42.695Z,13.52
2023-10-28T09:35:46.662Z,13.20
2023-10-28T09:36:51.463Z,16.05
2023-10-28T09:37:55.040Z,17.25
2023-10-28T09:38:57.188Z,13.20
2023-10-28T09:39:59.865Z,13.25
2023-10-28T09:41:03.173Z,15.35
2023-10-28T09:42:05.591Z,13.75
2023-10-28T09:43:08.389Z,13.77
2023-10-28T09:44:11.422Z,11.43
2023-10-28T09:45:13.027Z,13.68
2023-10-28T09:46:21.381Z,11.98
2023-10-28T09:47:23.873Z,20.55
2023-10-28T09:48:32.989Z,14.77
2023-10-28T09:49:40.701Z,11.75
2023-10-28T09:50:50.407Z,26.30
2023-10-28T09:51:57.583Z,13.63
2023-10-28T09:52:59.533Z,14.63
2023-10-28T09:54:06.658Z,17.77
2023-10-28T09:55:12.386Z,15.68
2023-10-28T09:56:14.520Z,13.80
2023-10-28T09:57:17.873Z,12.77
2023-10-28T09:58:21.427Z,17.08
2023-10-28T09:59:27.363Z,18.17
2023-10-28T10:00:32.012Z,12.73
2023-10-28T10:02:02.909Z,15.50
2023-10-28T10:03:29.946Z,14.98
2023-10-28T10:04:45.643Z,23.13
2023-10-28T10:05:48.491Z,15.45
2023-10-28T10:06:50.299Z,15.60
2023-10-28T10:07:53.773Z,13.25
2023-10-28T10:08:56.487Z,20.23
2023-10-28T10:10:11.288Z,19.30
2023-10-28T10:11:13.010Z,18.10
2023-10-28T10:12:14.839Z,14.45
2023-10-28T10:13:16.880Z,15.75
2023-10-28T10:14:21.151Z,12.43
2023-10-28T10:15:23.860Z,19.50
2023-10-28T10:16:43.257Z,10.60
2023-10-28T10:18:12.030Z,11.40
2023-10-28T10:19:21.832Z,17.30
2023-10-28T10:20:27.324Z,19.85
2023-10-28T10:21:33.878Z,15.52
2023-10-28T10:22:36.635Z,13.82
2023-10-28T10:23:45.590Z,16.02
2023-10-28T10:24:50.901Z,21.30
2023-10-28T10:25:55.781Z,10.48
2023-10-28T10:26:59.550Z,16.13
2023-10-28T10:28:27.396Z,12.73
2023-10-28T10:29:41.502Z,20.52
2023-10-28T10:30:46.405Z,20.02
2023-10-28T10:31:58.703Z,17.23
2023-10-28T10:33:05.055Z,12.68
2023-10-28T10:34:08.764Z,19.45
2023-10-28T10:35:33.099Z,10.77
2023-10-28T10:36:47.985Z,18.88
2023-10-28T10:38:10.535Z,12.30
2023-10-28T10:39:16.081Z,16.35
2023-10-28T10:40:22.505Z,13.82
2023-10-28T10:41:29.348Z,19.45
2023-10-28T10:42:31.330Z,16.27
2023-10-28T10:43:33.606Z,20.15
2023-10-28T10:44:40.417Z,14.38
2023-10-28T10:45:42.555Z,15.43
2023-10-28T10:46:44.518Z,17.20
2023-10-28T10:47:47.767Z,18.90
2023-10-28T10:48:49.861Z,17.42
2023-10-28T10:49:51.543Z,22.65
2023-10-28T10:50:53.363Z,16.90
2023-10-28T10:51:55.054Z,16.65
2023-10-28T10:52:57.843Z,15.90
2023-10-28T10:53:59.430Z,12.52
2023-10-28T10:55:01.967Z,31.33
2023-10-28T10:56:03.768Z,18.40
2023-10-28T10:57:07.487Z,22.67
2023-10-28T10:58:09.121Z,22.15
2023-10-28T10:59:10.969Z,24.45
2023-10-28T11:00:13.817Z,12.20
2023-10-28T11:01:16.563Z,12.15
2023-10-28T11:02:18.940Z,11.60
2023-10-28T11:03:22.972Z,7.68
2023-10-28T11:04:32.142Z,10.27
2023-10-28T11:05:33.839Z,8.45
2023-10-28T11:06:36.667Z,11.80
2023-10-28T11:07:38.241Z,13.55
2023-10-28T11:08:40.968Z,13.00
2023-10-28T11:09:43.353Z,14.93
2023-10-28T11:10:47.238Z,12.52
2023-10-28T11:11:49.216Z,14.32
2023-10-28T11:12:51.576Z,16.38
2023-10-28T11:13:53.545Z,11.60
2023-10-28T11:14:56.116Z,9.88
2023-10-28T11:15:58.552Z,15.68
2023-10-28T11:17:01.219Z,12.57
2023-10-28T11:18:03.205Z,6.43
2023-10-28T11:19:06.119Z,8.70
2023-10-28T11:20:11.091Z,11.63
2023-10-28T11:21:15.687Z,27.65
2023-10-28T11:22:18.486Z,43.08
2023-10-28T11:23:21.150Z,20.17
2023-10-28T11:24:23.858Z,68.32
2023-10-28T11:25:33.106Z,11.00
2023-10-28T11:26:36.260Z,26.63
2023-10-28T11:27:39.406Z,10.50
2023-10-28T11:28:40.987Z,14.20
2023-10-28T11:29:42.750Z,16.33
2023-10-28T11:30:52.177Z,12.70
2023-10-28T11:31:54.242Z,9.55
2023-10-28T11:32:56.053Z,14.32
2023-10-28T11:34:03.075Z,15.70
2023-10-28T11:35:04.995Z,12.35
2023-10-28T11:36:07.297Z,9.02
2023-10-28T11:37:10.255Z,12.27
2023-10-28T11:38:12.049Z,10.85
2023-10-28T11:39:16.954Z,9.30
2023-10-28T11:40:22.305Z,12.15
2023-10-28T11:41:26.239Z,10.85
2023-10-28T11:42:28.644Z,7.82
2023-10-28T11:43:30.237Z,20.58
2023-10-28T11:44:32.015Z,14.80
2023-10-28T11:45:33.730Z,14.60
2023-10-28T11:46:35.392Z,17.73
2023-10-28T11:47:37.100Z,14.15
2023-10-28T11:48:39.298Z,13.73
2023-10-28T11:49:40.907Z,7.40
2023-10-28T11:50:44.498Z,7.15
2023-10-28T11:51:46.343Z,7.50
2023-10-28T11:52:50.606Z,7.95
2023-10-28T11:53:52.834Z,8.20
2023-10-28T11:54:54.898Z,8.38
2023-10-28T11:55:56.857Z,8.60
2023-10-28T11:56:58.433Z,11.07
2023-10-28T11:58:00.051Z,9.43
2023-10-28T11:59:02.851Z,8.85
2023-10-28T12:00:08.243Z,15.82
2023-10-28T12:01:09.958Z,8.63
2023-10-28T12:02:11.634Z,12.77
2023-10-28T12:03:14.294Z,6.45
2023-10-28T12:04:16.345Z,12.27
2023-10-28T12:05:17.991Z,6.82
2023-10-28T12:06:29.482Z,8.80
2023-10-28T12:07:32.144Z,13.00
2023-10-28T12:08:34.297Z,8.52
2023-10-28T12:09:38.702Z,10.13
2023-10-28T12:10:44.539Z,6.57
2023-10-28T12:11:47.415Z,12.77
2023-10-28T12:12:49.065Z,16.33
2023-10-28T12:13:50.639Z,8.48
2023-10-28T12:14:52.231Z,14.05
2023-10-28T12:15:53.875Z,7.00
2023-10-28T12:16:55.460Z,9.05
2023-10-28T12:17:57.087Z,8.20
2023-10-28T12:18:58.833Z,10.75
2023-10-28T12:20:00.413Z,6.82
2023-10-28T12:21:02.111Z,8.93
2023-10-28T12:22:03.907Z,8.07
2023-10-28T12:23:05.602Z,7.28
2023-10-28T12:24:07.848Z,11.07
2023-10-28T12:25:14.883Z,8.50
2023-10-28T12:26:18.911Z,5.70
2023-10-28T12:27:21.341Z,10.50
2023-10-28T12:28:23.913Z,7.60
2023-10-28T12:29:26.282Z,8.82
2023-10-28T12:30:28.434Z,6.05
2023-10-28T12:31:30.033Z,7.07
2023-10-28T12:32:31.759Z,7.38
2023-10-28T12:33:35.501Z,9.60
2023-10-28T12:34:38.900Z,9.18
2023-10-28T12:35:40.950Z,9.95
2023-10-28T12:36:43.925Z,5.57
2023-10-28T12:37:45.728Z,5.22
2023-10-28T12:38:47.770Z,9.35
2023-10-28T12:39:49.383Z,8.60
2023-10-28T12:40:50.954Z,7.53
2023-10-28T12:41:52.653Z,9.10
2023-10-28T12:42:54.383Z,14.00
2023-10-28T12:43:55.974Z,7.47
2023-10-28T12:44:57.761Z,8.23
2023-10-28T12:45:59.438Z,6.20
2023-10-28T12:47:01.076Z,8.90
2023-10-28T12:48:03.301Z,12.60
2023-10-28T12:49:04.933Z,7.68
2023-10-28T12:50:07.002Z,5.20
2023-10-28T12:51:09.855Z,14.52
2023-10-28T12:52:11.467Z,8.05
2023-10-28T12:53:14.619Z,8.90
2023-10-28T12:54:16.242Z,7.22
2023-10-28T12:55:18.317Z,8.32
2023-10-28T12:56:19.913Z,10.60
2023-10-28T12:57:22.564Z,9.43
2023-10-28T12:58:24.765Z,8.27
2023-10-28T12:59:29.012Z,7.55
2023-10-28T13:00:30.698Z,6.82
2023-10-28T13:01:33.109Z,6.70
2023-10-28T13:02:34.932Z,7.45
2023-10-28T13:03:37.032Z,7.28
2023-10-28T13:04:41.502Z,4.70
2023-10-28T13:05:43.386Z,5.78
2023-10-28T13:06:46.190Z,12.57
2023-10-28T13:07:47.787Z,6.25
2023-10-28T13:08:49.462Z,5.95
2023-10-28T13:09:51.159Z,7.68
2023-10-28T13:10:54.946Z,7.60
2023-10-28T13:12:00.349Z,8.68
2023-10-28T13:13:02.209Z,6.97
2023-10-28T13:14:04.206Z,8.40
2023-10-28T13:15:06.607Z,6.35
2023-10-28T13:16:09.445Z,6.10
2023-10-28T13:17:11.737Z,6.63
2023-10-28T13:18:13.761Z,7.20
2023-10-28T13:19:15.458Z,7.07
2023-10-28T13:20:18.124Z,7.40
2023-10-28T13:21:19.762Z,30.88
2023-10-28T13:22:22.704Z,13.73
2023-10-28T13:23:24.395Z,12.30
2023-10-28T13:24:26.121Z,12.35
2023-10-28T13:25:27.810Z,10.43
2023-10-28T13:26:30.733Z,4.13
2023-10-28T13:27:32.635Z,5.80
2023-10-28T13:28:34.232Z,6.50
2023-10-28T13:29:35.856Z,3.53
2023-10-28T13:30:41.396Z,7.00
2023-10-28T13:31:42.983Z,9.00
2023-10-28T13:32:55.567Z,6.88
2023-10-28T13:33:58.385Z,14.07
2023-10-28T13:35:01.287Z,12.73
2023-10-28T13:36:04.491Z,8.35